Arctic Taglu — CY8968 — position and weather

sailwx.info

Track history (hours):
 
Tides and Currents Weather Stations Pressure Air Temp Water Temp Dewpoint Dewpoint Depression Visibility Wind Speed Wind Dir Waves Ship Positions

Arctic Taglu

Last reported at 2018-Jul-23 02:00 UTC. Time now 2018-Jul-23 02:20 UTC.
Position N 45°41' W 124°05'.

Length 33 m; draft 5 m.

Type: Tug. MMSI: 316003483.

Date/timePositionNaut miles runAvg speedWind from/ knotsBaromVisibWave heightAir tempDewpointWater temp
2018-Jul-23 02:00N 45°41' W 124°05'2 4.8
2018-Jul-23 01:31N 45°39' W 124°05'2 4.8
2018-Jul-23 01:01N 45°36' W 124°04'2 4.8
2018-Jul-23 00:30N 45°34' W 124°04'2 5.0
2018-Jul-23 00:00N 45°31' W 124°04'3 5.1
2018-Jul-22 23:31N 45°29' W 124°04'3 5.2
2018-Jul-22 23:01N 45°26' W 124°04'3 5.3
2018-Jul-22 22:30N 45°24' W 124°05'3 5.4
2018-Jul-22 22:00N 45°21' W 124°05'3 5.3
2018-Jul-22 21:31N 45°18' W 124°05'3 5.1
2018-Jul-22 21:01N 45°16' W 124°05'3 5.1
2018-Jul-22 20:30N 45°13' W 124°05'3 5.1
2018-Jul-22 19:59N 45°10' W 124°05'3 5.1
2018-Jul-22 19:28N 45°08' W 124°05'3 5.1
2018-Jul-22 18:51N 45°05' W 124°06'3 5.1
2018-Jul-22 18:21N 45°02' W 124°07'2 5.0
2018-Jul-22 18:00N 45°01' W 124°07'2 4.7
2018-Jul-22 17:30N 44°58' W 124°08'2 4.6
2018-Jul-22 17:00N 44°56' W 124°08'2 5.0
2018-Jul-22 16:31N 44°54' W 124°10'  
2018-Jul-20 09:51N 45°04' W 124°06'4 8.6
2018-Jul-20 09:20N 45°08' W 124°06'4 8.8
2018-Jul-20 08:54N 45°12' W 124°06'3 8.5
2018-Jul-20 08:30N 45°15' W 124°05'5 8.5
2018-Jul-20 07:55N 45°20' W 124°05'4 8.6
2018-Jul-20 07:30N 45°24' W 124°05'4 8.7
2018-Jul-20 06:59N 45°28' W 124°04'4 8.6
2018-Jul-20 06:30N 45°32' W 124°04'4 8.9
2018-Jul-20 06:00N 45°37' W 124°04'5 9.0
2018-Jul-20 05:30N 45°41' W 124°05'5 9.0
2018-Jul-20 04:58N 45°46' W 124°06'4 9.0
2018-Jul-20 04:31N 45°50' W 124°07'5 8.7
2018-Jul-20 03:56N 45°55' W 124°08'4 8.5
2018-Jul-20 03:30N 45°59' W 124°09'4 8.1
2018-Jul-20 03:01N 46°03' W 124°09'4 8.0
2018-Jul-20 02:30N 46°07' W 124°09'4 7.8
2018-Jul-20 02:01N 46°10' W 124°12'4 8.3
2018-Jul-20 01:31N 46°13' W 124°16'4 7.6
2018-Jul-20 01:01N 46°16' W 124°18'4 8.1
2018-Jul-20 00:31N 46°20' W 124°20'4 8.7
2018-Jul-20 00:01N 46°24' W 124°22'5 9.1
2018-Jul-19 23:31N 46°29' W 124°23'4 8.9
2018-Jul-19 23:00N 46°33' W 124°23'4 8.8
2018-Jul-19 22:30N 46°38' W 124°24'4 8.8
2018-Jul-19 22:00N 46°42' W 124°26'4 8.2
2018-Jul-19 21:31N 46°46' W 124°27'4 8.2
2018-Jul-19 21:01N 46°50' W 124°28'4 8.3
2018-Jul-19 20:30N 46°54' W 124°30'4 8.5
2018-Jul-19 20:00N 46°58' W 124°32'4 8.2
2018-Jul-19 19:28N 47°02' W 124°33'4 8.3
2018-Jul-19 19:00N 47°06' W 124°34'69 8.5
2018-Jul-19 10:50N 48°13' W 124°58'3 8.1
2018-Jul-19 10:30N 48°16' W 124°57'4 8.4
2018-Jul-19 10:00N 48°20' W 124°53'4 8.7
2018-Jul-19 09:30N 48°23' W 124°50'4 8.5
2018-Jul-19 09:00N 48°26' W 124°45'4 9.0
2018-Jul-19 08:31N 48°25' W 124°39'5 9.4
2018-Jul-19 08:01N 48°23' W 124°32'5 9.2
2018-Jul-19 07:30N 48°21' W 124°26'5 9.0
2018-Jul-19 07:00N 48°19' W 124°20'4 8.5
2018-Jul-19 06:30N 48°17' W 124°14'4 8.1
2018-Jul-19 06:00N 48°16' W 124°08'4 7.8
2018-Jul-19 05:29N 48°14' W 124°03'4 7.5
2018-Jul-19 04:56N 48°12' W 123°57'28 4.6
2018-Jul-18 22:58N 48°19' W 123°17'4 7.7
2018-Jul-18 22:30N 48°21' W 123°14'4 8.0
2018-Jul-18 22:00N 48°25' W 123°11'5 9.5
2018-Jul-18 21:30N 48°30' W 123°12'5 9.9
2018-Jul-18 21:01N 48°35' W 123°14'5 9.0
2018-Jul-18 20:31N 48°39' W 123°15'4 8.9
2018-Jul-18 20:01N 48°43' W 123°17'4 8.6
2018-Jul-18 19:31N 48°47' W 123°20'4 7.9
2018-Jul-18 19:01N 48°51' W 123°22'4 7.9
2018-Jul-18 18:30N 48°53' W 123°27'4 7.5
2018-Jul-18 18:00N 48°55' W 123°31'4 7.1
2018-Jul-18 17:31N 48°57' W 123°36'3 5.8
2018-Jul-18 17:00N 48°54' W 123°38'0 0.2
2018-Jul-18 16:31N 48°54' W 123°39'1 1.4
2018-Jul-18 16:00N 48°54' W 123°38'0 0.4
2018-Jul-18 15:31N 48°54' W 123°38'0 0.3
2018-Jul-18 15:01N 48°54' W 123°38'0 0.7
2018-Jul-18 14:30N 48°54' W 123°38'0 0.4
2018-Jul-18 13:31N 48°53' W 123°37'0 0.4
2018-Jul-18 13:00N 48°53' W 123°38'0 0.7
2018-Jul-18 12:31N 48°53' W 123°37'0 0.2
2018-Jul-18 12:00N 48°53' W 123°37'0 0.9
2018-Jul-18 11:31N 48°52' W 123°37'1 0.9
2018-Jul-18 10:31N 48°53' W 123°38'0 0.2
2018-Jul-18 10:00N 48°53' W 123°39'0 0.0
2018-Jul-18 09:30N 48°53' W 123°39'0 0.0
2018-Jul-18 09:00N 48°53' W 123°39'0 0.0
2018-Jul-18 08:30N 48°53' W 123°39'0 0.0
2018-Jul-18 08:01N 48°53' W 123°39'0 0.0
2018-Jul-18 07:30N 48°53' W 123°39'0 0.0
2018-Jul-18 06:56N 48°53' W 123°39'0 0.0
2018-Jul-18 06:30N 48°53' W 123°39'0 0.0
2018-Jul-18 06:00N 48°53' W 123°39'0 0.0
2018-Jul-18 05:28N 48°53' W 123°39'0 0.0
2018-Jul-18 05:00N 48°53' W 123°39'0 0.0
2018-Jul-18 04:31N 48°53' W 123°39'0 0.0
2018-Jul-18 04:00N 48°53' W 123°39'0 0.0
2018-Jul-18 03:31N 48°53' W 123°39'0 0.0
2018-Jul-18 03:00N 48°53' W 123°39'0 0.0
2018-Jul-18 02:30N 48°53' W 123°39'0 0.0
2018-Jul-18 02:00N 48°53' W 123°39'0 0.0
2018-Jul-18 01:30N 48°53' W 123°39'0 0.0
2018-Jul-18 01:00N 48°53' W 123°39'0 0.2
2018-Jul-18 00:31N 48°52' W 123°38'2 3.5
2018-Jul-18 00:01N 48°54' W 123°39'3 5.4
2018-Jul-17 23:31N 48°56' W 123°41'3 5.3
2018-Jul-17 23:00N 48°59' W 123°43'3 5.3
2018-Jul-17 22:30N 49°01' W 123°44'3 5.7
2018-Jul-17 22:00N 49°04' W 123°45'9 1.0
2018-Jul-17 12:55N 49°10' W 123°56'4 2.1
2018-Jul-17 10:53N 49°13' W 123°51'6 4.7
2018-Jul-17 09:40N 49°08' W 123°48'2 9.6
2018-Jul-17 09:26N 49°06' W 123°46'410.0
2018-Jul-17 08:59N 49°02' W 123°44'510.2
2018-Jul-17 08:30N 48°57' W 123°41'5 9.9
2018-Jul-17 08:00N 48°53' W 123°37'1 1.8
2018-Jul-17 07:28N 48°52' W 123°39'0 0.0
2018-Jul-17 06:56N 48°52' W 123°39'0 0.0
2018-Jul-17 06:30N 48°52' W 123°39'0 0.0
2018-Jul-17 06:00N 48°52' W 123°39'0 0.0
2018-Jul-17 05:30N 48°52' W 123°39'0 0.0
2018-Jul-17 05:00N 48°52' W 123°39'0 0.0
2018-Jul-17 04:30N 48°52' W 123°39'0 0.0
2018-Jul-17 04:00N 48°52' W 123°39'0 0.0
2018-Jul-17 03:28N 48°52' W 123°39'0 0.0
2018-Jul-17 03:00N 48°52' W 123°39'0 0.0
2018-Jul-17 02:30N 48°52' W 123°39'0 0.0
2018-Jul-17 02:00N 48°52' W 123°39'0 0.0
2018-Jul-17 01:30N 48°52' W 123°39'0 0.0
2018-Jul-17 01:00N 48°52' W 123°39'0 0.0
2018-Jul-17 00:28N 48°52' W 123°39'0 0.0
2018-Jul-16 23:30N 48°52' W 123°39'0 0.0
2018-Jul-16 23:00N 48°52' W 123°39'0 0.0
2018-Jul-16 22:30N 48°52' W 123°39'0 0.0
2018-Jul-16 21:56N 48°52' W 123°39'0 0.0
2018-Jul-16 21:30N 48°52' W 123°39'0 0.0
2018-Jul-16 21:00N 48°52' W 123°39'0 0.0
2018-Jul-16 20:29N 48°52' W 123°39'0 0.0
2018-Jul-16 20:00N 48°52' W 123°39'0 0.0
2018-Jul-16 19:26N 48°52' W 123°39'0 0.0
2018-Jul-16 19:00N 48°52' W 123°39'0 0.0
2018-Jul-16 18:31N 48°52' W 123°39'0 0.0
2018-Jul-16 17:59N 48°52' W 123°39'0 0.0
2018-Jul-16 17:30N 48°52' W 123°39'0 0.0
2018-Jul-16 17:00N 48°52' W 123°39'0 0.0
2018-Jul-16 16:29N 48°52' W 123°39'0 0.0
2018-Jul-16 16:00N 48°52' W 123°39'0 0.0
2018-Jul-16 15:31N 48°52' W 123°39'0 0.0
2018-Jul-16 14:58N 48°52' W 123°39'0 0.0
2018-Jul-16 14:30N 48°52' W 123°39'0 0.2
2018-Jul-16 14:01N 48°53' W 123°38'0 0.0
2018-Jul-16 13:31N 48°53' W 123°38'0 0.9
2018-Jul-16 13:00N 48°52' W 123°38'1 2.3
2018-Jul-16 12:30N 48°53' W 123°37'2 3.5
2018-Jul-16 12:01N 48°55' W 123°39'2 3.4
2018-Jul-16 11:30N 48°56' W 123°40'1 1.8
2018-Jul-16 11:00N 48°55' W 123°40'2 3.2
2018-Jul-16 10:31N 48°54' W 123°38'1 2.5
2018-Jul-16 10:01N 48°55' W 123°36'2 3.2
2018-Jul-16 09:30N 48°57' W 123°36'3 3.7
2018-Jul-16 08:43N 48°55' W 123°32'1 3.5
2018-Jul-16 08:30N 48°55' W 123°31'2 3.2
2018-Jul-16 07:59N 48°54' W 123°29'2 3.5
2018-Jul-16 07:28N 48°53' W 123°27'1 2.9
2018-Jul-16 06:58N 48°52' W 123°25'2 3.1
2018-Jul-16 06:29N 48°51' W 123°23'2 3.9
2018-Jul-16 06:00N 48°50' W 123°21'1 2.5
2018-Jul-16 05:31N 48°49' W 123°20'2 3.3
2018-Jul-16 05:00N 48°47' W 123°20'2 3.3
2018-Jul-16 04:30N 48°46' W 123°19'2 3.8
2018-Jul-16 04:01N 48°44' W 123°17'3 5.1
2018-Jul-16 03:28N 48°42' W 123°15'3 7.5
2018-Jul-16 03:00N 48°39' W 123°14'4 7.3
2018-Jul-16 02:30N 48°35' W 123°13'4 7.6
2018-Jul-16 02:01N 48°31' W 123°12'3 6.4
2018-Jul-16 01:31N 48°29' W 123°10'4 7.3
2018-Jul-16 01:00N 48°25' W 123°10'4 7.3
2018-Jul-16 00:28N 48°21' W 123°13'19 6.4
2018-Jul-15 21:28N 48°12' W 123°38'10 4.7
2018-Jul-15 19:26N 48°13' W 123°53'2 3.6
2018-Jul-15 18:51N 48°13' W 123°56'1 3.6
2018-Jul-15 18:28N 48°13' W 123°58'2 4.1
2018-Jul-15 17:53N 48°14' W 124°01'2 4.5
2018-Jul-15 17:29N 48°15' W 124°04'2 3.9
2018-Jul-15 16:58N 48°16' W 124°06'2 3.5
2018-Jul-15 16:29N 48°17' W 124°08'2 4.1
2018-Jul-15 16:00N 48°17' W 124°11'2 4.7
2018-Jul-15 15:29N 48°18' W 124°15'2 4.9
2018-Jul-15 15:01N 48°19' W 124°18'3 4.9
2018-Jul-15 14:28N 48°20' W 124°21'2 5.1
2018-Jul-15 14:00N 48°21' W 124°25'3 5.3
2018-Jul-15 13:30N 48°23' W 124°28'3 5.5
2018-Jul-15 13:00N 48°24' W 124°32'3 5.5
2018-Jul-15 12:30N 48°25' W 124°36'3 5.3
2018-Jul-15 12:00N 48°26' W 124°39'3 5.8
2018-Jul-15 11:31N 48°26' W 124°44'3 6.6
2018-Jul-15 11:01N 48°25' W 124°48'4 7.9
2018-Jul-15 10:30N 48°21' W 124°52'4 7.2
2018-Jul-15 09:57N 48°18' W 124°55'3 6.9
2018-Jul-15 09:30N 48°16' W 124°58'3 6.7
2018-Jul-15 09:00N 48°12' W 124°58'5 6.9
2018-Jul-15 08:19N 48°07' W 124°57'14 6.3
2018-Jul-15 06:06N 47°54' W 124°52'1 6.0
2018-Jul-15 05:57N 47°53' W 124°52'3 6.0
2018-Jul-15 05:31N 47°51' W 124°50'5 6.1
2018-Jul-15 04:38N 47°45' W 124°48'1 5.7
2018-Jul-15 04:30N 47°45' W 124°48'3 5.8
2018-Jul-15 04:01N 47°42' W 124°48'3 5.7
2018-Jul-15 03:30N 47°39' W 124°47'3 5.8
2018-Jul-15 03:01N 47°36' W 124°46'6 5.6
2018-Jul-15 01:56N 47°30' W 124°43'2 5.9
2018-Jul-15 01:30N 47°28' W 124°43'3 5.7
2018-Jul-15 01:01N 47°25' W 124°41'3 5.7
2018-Jul-15 00:30N 47°22' W 124°41'3 5.6
2018-Jul-15 00:00N 47°20' W 124°40'4 5.6
2018-Jul-14 23:13N 47°15' W 124°39'1 5.6
2018-Jul-14 23:01N 47°14' W 124°38'3 5.4
2018-Jul-14 22:31N 47°12' W 124°37'3 5.3
2018-Jul-14 22:01N 47°09' W 124°36'3 5.3
2018-Jul-14 21:30N 47°07' W 124°34'3 5.5
2018-Jul-14 21:00N 47°04' W 124°33'3 5.2
2018-Jul-14 20:31N 47°02' W 124°32'3 5.6
2018-Jul-14 20:00N 46°59' W 124°31'3 5.5
2018-Jul-14 19:30N 46°56' W 124°29'3 5.2
2018-Jul-14 19:00N 46°55' W 124°26'3 5.2
2018-Jul-14 18:29N 46°53' W 124°23'2 5.2
2018-Jul-14 18:01N 46°52' W 124°20'3 5.8
2018-Jul-14 17:30N 46°49' W 124°20'3 5.4
2018-Jul-14 17:01N 46°46' W 124°19'3 5.7
2018-Jul-14 16:31N 46°43' W 124°18'3 5.6
2018-Jul-14 16:00N 46°41' W 124°18'3 5.6
2018-Jul-14 15:31N 46°38' W 124°17'3 5.5
2018-Jul-14 15:01N 46°35' W 124°17'5 5.2
2018-Jul-14 14:01N 46°30' W 124°16'3 5.3
2018-Jul-14 13:29N 46°27' W 124°16'2 5.1
2018-Jul-14 13:00N 46°25' W 124°16'3 5.0
2018-Jul-14 12:30N 46°22' W 124°15'2 5.0
2018-Jul-14 12:01N 46°20' W 124°14'2 4.9
2018-Jul-14 11:31N 46°17' W 124°14'2 4.9
2018-Jul-14 11:01N 46°15' W 124°13'2 4.9
2018-Jul-14 10:31N 46°13' W 124°12'2 4.9
2018-Jul-14 10:01N 46°11' W 124°10'4 5.4
2018-Jul-14 09:15N 46°06' W 124°09'1 5.7
2018-Jul-14 09:01N 46°05' W 124°09'3 5.6
2018-Jul-14 08:30N 46°02' W 124°09'3 5.6
2018-Jul-14 08:01N 45°60' W 124°08'3 5.3
2018-Jul-14 07:31N 45°57' W 124°08'3 5.4
2018-Jul-14 06:59N 45°54' W 124°07'3 5.3
2018-Jul-14 06:30N 45°52' W 124°07'3 5.1
2018-Jul-14 06:01N 45°49' W 124°07'2 4.9
2018-Jul-14 05:31N 45°47' W 124°06'2 5.0
2018-Jul-14 05:00N 45°44' W 124°06'3 5.2
2018-Jul-14 04:30N 45°42' W 124°05'3 5.3
2018-Jul-14 04:01N 45°39' W 124°05'3 5.1
2018-Jul-14 03:27N 45°36' W 124°05'2 4.8
2018-Jul-14 02:59N 45°34' W 124°05'2 4.9
2018-Jul-14 02:30N 45°32' W 124°05'2 4.7
2018-Jul-14 02:00N 45°29' W 124°05'2 4.9
2018-Jul-14 01:31N 45°27' W 124°05'2 4.9
2018-Jul-14 01:00N 45°24' W 124°05'2 4.9
2018-Jul-14 00:30N 45°22' W 124°05'4 5.2
2018-Jul-13 23:49N 45°18' W 124°05'2 5.7
2018-Jul-13 23:31N 45°17' W 124°05'3 5.7
2018-Jul-13 23:00N 45°14' W 124°05'3 5.4
2018-Jul-13 22:30N 45°11' W 124°05'3 5.4
2018-Jul-13 22:01N 45°08' W 124°05'3 5.4
2018-Jul-13 21:31N 45°06' W 124°06'3 5.2
2018-Jul-13 21:00N 45°03' W 124°07'4 5.0
2018-Jul-13 20:07N 44°59' W 124°08'1 5.0
2018-Jul-13 19:57N 44°58' W 124°08'3 5.1
2018-Jul-13 19:26N 44°56' W 124°09'2 5.2
2018-Jul-13 19:01N 44°53' W 124°10'3 5.0
2018-Jul-13 18:27N 44°51' W 124°11'2 5.2
2018-Jul-13 18:01N 44°48' W 124°12'3 5.1
2018-Jul-13 17:28N 44°46' W 124°12'2 4.9
2018-Jul-13 17:00N 44°44' W 124°13'2 4.9
2018-Jul-13 16:30N 44°41' W 124°13'4 4.8
2018-Jul-13 15:41N 44°37' W 124°16'1 4.9
2018-Jul-13 15:25N 44°36' W 124°17'2 4.4
2018-Jul-13 15:00N 44°35' W 124°17'4 4.5
2018-Jul-13 14:00N 44°30' W 124°16'2 4.4
2018-Jul-13 13:30N 44°28' W 124°16'2 4.5
2018-Jul-13 13:00N 44°26' W 124°17'2 4.6
2018-Jul-13 12:30N 44°23' W 124°17'2 4.6
2018-Jul-13 12:01N 44°21' W 124°17'2 4.7
2018-Jul-13 11:30N 44°19' W 124°18'2 4.7
2018-Jul-13 11:01N 44°16' W 124°18'2 4.7
2018-Jul-13 10:30N 44°14' W 124°18'2 4.6
2018-Jul-13 10:01N 44°12' W 124°18'2 4.4
2018-Jul-13 09:30N 44°10' W 124°18'2 4.1
2018-Jul-13 09:00N 44°08' W 124°18'2 4.0
2018-Jul-13 08:30N 44°06' W 124°18'4 4.2
2018-Jul-13 07:35N 44°02' W 124°19'1 4.3
2018-Jul-13 07:26N 44°01' W 124°19'2 4.2
2018-Jul-13 06:59N 43°59' W 124°19'3 4.0
2018-Jul-13 06:19N 43°57' W 124°20'11 3.8
2018-Jul-13 03:30N 43°46' W 124°21'2 3.8
2018-Jul-13 02:54N 43°44' W 124°20'3 4.1
2018-Jul-13 02:07N 43°41' W 124°19'  
Track history (hours):
 
Tides and Currents Weather Stations Pressure Air Temp Water Temp Dewpoint Dewpoint Depression Visibility Wind Speed Wind Dir Waves Ship Positions

Arctic Taglu

Last reported at 2018-Jul-23 02:00 UTC. Time now 2018-Jul-23 02:20 UTC.
Position N 45°41' W 124°05'.

Length 33 m; draft 5 m.

Type: Tug. MMSI: 316003483.

Date/timePositionNaut miles runAvg speedWind from/ knotsBaromVisibWave heightAir tempDewpointWater temp
2018-Jul-23 02:00N 45°41' W 124°05'2 4.8
2018-Jul-23 01:31N 45°39' W 124°05'2 4.8
2018-Jul-23 01:01N 45°36' W 124°04'2 4.8
2018-Jul-23 00:30N 45°34' W 124°04'2 5.0
2018-Jul-23 00:00N 45°31' W 124°04'3 5.1
2018-Jul-22 23:31N 45°29' W 124°04'3 5.2
2018-Jul-22 23:01N 45°26' W 124°04'3 5.3
2018-Jul-22 22:30N 45°24' W 124°05'3 5.4
2018-Jul-22 22:00N 45°21' W 124°05'3 5.3
2018-Jul-22 21:31N 45°18' W 124°05'3 5.1
2018-Jul-22 21:01N 45°16' W 124°05'3 5.1
2018-Jul-22 20:30N 45°13' W 124°05'3 5.1
2018-Jul-22 19:59N 45°10' W 124°05'3 5.1
2018-Jul-22 19:28N 45°08' W 124°05'3 5.1
2018-Jul-22 18:51N 45°05' W 124°06'3 5.1
2018-Jul-22 18:21N 45°02' W 124°07'2 5.0
2018-Jul-22 18:00N 45°01' W 124°07'2 4.7
2018-Jul-22 17:30N 44°58' W 124°08'2 4.6
2018-Jul-22 17:00N 44°56' W 124°08'2 5.0
2018-Jul-22 16:31N 44°54' W 124°10'  
2018-Jul-20 09:51N 45°04' W 124°06'4 8.6
2018-Jul-20 09:20N 45°08' W 124°06'4 8.8
2018-Jul-20 08:54N 45°12' W 124°06'3 8.5
2018-Jul-20 08:30N 45°15' W 124°05'5 8.5
2018-Jul-20 07:55N 45°20' W 124°05'4 8.6
2018-Jul-20 07:30N 45°24' W 124°05'4 8.7
2018-Jul-20 06:59N 45°28' W 124°04'4 8.6
2018-Jul-20 06:30N 45°32' W 124°04'4 8.9
2018-Jul-20 06:00N 45°37' W 124°04'5 9.0
2018-Jul-20 05:30N 45°41' W 124°05'5 9.0
2018-Jul-20 04:58N 45°46' W 124°06'4 9.0
2018-Jul-20 04:31N 45°50' W 124°07'5 8.7
2018-Jul-20 03:56N 45°55' W 124°08'4 8.5
2018-Jul-20 03:30N 45°59' W 124°09'4 8.1
2018-Jul-20 03:01N 46°03' W 124°09'4 8.0
2018-Jul-20 02:30N 46°07' W 124°09'4 7.8
2018-Jul-20 02:01N 46°10' W 124°12'4 8.3
2018-Jul-20 01:31N 46°13' W 124°16'4 7.6
2018-Jul-20 01:01N 46°16' W 124°18'4 8.1
2018-Jul-20 00:31N 46°20' W 124°20'4 8.7
2018-Jul-20 00:01N 46°24' W 124°22'5 9.1
2018-Jul-19 23:31N 46°29' W 124°23'4 8.9
2018-Jul-19 23:00N 46°33' W 124°23'4 8.8
2018-Jul-19 22:30N 46°38' W 124°24'4 8.8
2018-Jul-19 22:00N 46°42' W 124°26'4 8.2
2018-Jul-19 21:31N 46°46' W 124°27'4 8.2
2018-Jul-19 21:01N 46°50' W 124°28'4 8.3
2018-Jul-19 20:30N 46°54' W 124°30'4 8.5
2018-Jul-19 20:00N 46°58' W 124°32'4 8.2
2018-Jul-19 19:28N 47°02' W 124°33'4 8.3
2018-Jul-19 19:00N 47°06' W 124°34'69 8.5
2018-Jul-19 10:50N 48°13' W 124°58'3 8.1
2018-Jul-19 10:30N 48°16' W 124°57'4 8.4
2018-Jul-19 10:00N 48°20' W 124°53'4 8.7
2018-Jul-19 09:30N 48°23' W 124°50'4 8.5
2018-Jul-19 09:00N 48°26' W 124°45'4 9.0
2018-Jul-19 08:31N 48°25' W 124°39'5 9.4
2018-Jul-19 08:01N 48°23' W 124°32'5 9.2
2018-Jul-19 07:30N 48°21' W 124°26'5 9.0
2018-Jul-19 07:00N 48°19' W 124°20'4 8.5
2018-Jul-19 06:30N 48°17' W 124°14'4 8.1
2018-Jul-19 06:00N 48°16' W 124°08'4 7.8
2018-Jul-19 05:29N 48°14' W 124°03'4 7.5
2018-Jul-19 04:56N 48°12' W 123°57'28 4.6
2018-Jul-18 22:58N 48°19' W 123°17'4 7.7
2018-Jul-18 22:30N 48°21' W 123°14'4 8.0
2018-Jul-18 22:00N 48°25' W 123°11'5 9.5
2018-Jul-18 21:30N 48°30' W 123°12'5 9.9
2018-Jul-18 21:01N 48°35' W 123°14'5 9.0
2018-Jul-18 20:31N 48°39' W 123°15'4 8.9
2018-Jul-18 20:01N 48°43' W 123°17'4 8.6
2018-Jul-18 19:31N 48°47' W 123°20'4 7.9
2018-Jul-18 19:01N 48°51' W 123°22'4 7.9
2018-Jul-18 18:30N 48°53' W 123°27'4 7.5
2018-Jul-18 18:00N 48°55' W 123°31'4 7.1
2018-Jul-18 17:31N 48°57' W 123°36'3 5.8
2018-Jul-18 17:00N 48°54' W 123°38'0 0.2
2018-Jul-18 16:31N 48°54' W 123°39'1 1.4
2018-Jul-18 16:00N 48°54' W 123°38'0 0.4
2018-Jul-18 15:31N 48°54' W 123°38'0 0.3
2018-Jul-18 15:01N 48°54' W 123°38'0 0.7
2018-Jul-18 14:30N 48°54' W 123°38'0 0.4
2018-Jul-18 13:31N 48°53' W 123°37'0 0.4
2018-Jul-18 13:00N 48°53' W 123°38'0 0.7
2018-Jul-18 12:31N 48°53' W 123°37'0 0.2
2018-Jul-18 12:00N 48°53' W 123°37'0 0.9
2018-Jul-18 11:31N 48°52' W 123°37'1 0.9
2018-Jul-18 10:31N 48°53' W 123°38'0 0.2
2018-Jul-18 10:00N 48°53' W 123°39'0 0.0
2018-Jul-18 09:30N 48°53' W 123°39'0 0.0
2018-Jul-18 09:00N 48°53' W 123°39'0 0.0
2018-Jul-18 08:30N 48°53' W 123°39'0 0.0
2018-Jul-18 08:01N 48°53' W 123°39'0 0.0
2018-Jul-18 07:30N 48°53' W 123°39'0 0.0
2018-Jul-18 06:56N 48°53' W 123°39'0 0.0
2018-Jul-18 06:30N 48°53' W 123°39'0 0.0
2018-Jul-18 06:00N 48°53' W 123°39'0 0.0
2018-Jul-18 05:28N 48°53' W 123°39'0 0.0
2018-Jul-18 05:00N 48°53' W 123°39'0 0.0
2018-Jul-18 04:31N 48°53' W 123°39'0 0.0
2018-Jul-18 04:00N 48°53' W 123°39'0 0.0
2018-Jul-18 03:31N 48°53' W 123°39'0 0.0
2018-Jul-18 03:00N 48°53' W 123°39'0 0.0
2018-Jul-18 02:30N 48°53' W 123°39'0 0.0
2018-Jul-18 02:00N 48°53' W 123°39'0 0.0
2018-Jul-18 01:30N 48°53' W 123°39'0 0.0
2018-Jul-18 01:00N 48°53' W 123°39'0 0.2
2018-Jul-18 00:31N 48°52' W 123°38'2 3.5
2018-Jul-18 00:01N 48°54' W 123°39'3 5.4
2018-Jul-17 23:31N 48°56' W 123°41'3 5.3
2018-Jul-17 23:00N 48°59' W 123°43'3 5.3
2018-Jul-17 22:30N 49°01' W 123°44'3 5.7
2018-Jul-17 22:00N 49°04' W 123°45'9 1.0
2018-Jul-17 12:55N 49°10' W 123°56'4 2.1
2018-Jul-17 10:53N 49°13' W 123°51'6 4.7
2018-Jul-17 09:40N 49°08' W 123°48'2 9.6
2018-Jul-17 09:26N 49°06' W 123°46'410.0
2018-Jul-17 08:59N 49°02' W 123°44'510.2
2018-Jul-17 08:30N 48°57' W 123°41'5 9.9
2018-Jul-17 08:00N 48°53' W 123°37'1 1.8
2018-Jul-17 07:28N 48°52' W 123°39'0 0.0
2018-Jul-17 06:56N 48°52' W 123°39'0 0.0
2018-Jul-17 06:30N 48°52' W 123°39'0 0.0
2018-Jul-17 06:00N 48°52' W 123°39'0 0.0
2018-Jul-17 05:30N 48°52' W 123°39'0 0.0
2018-Jul-17 05:00N 48°52' W 123°39'0 0.0
2018-Jul-17 04:30N 48°52' W 123°39'0 0.0
2018-Jul-17 04:00N 48°52' W 123°39'0 0.0
2018-Jul-17 03:28N 48°52' W 123°39'0 0.0
2018-Jul-17 03:00N 48°52' W 123°39'0 0.0
2018-Jul-17 02:30N 48°52' W 123°39'0 0.0
2018-Jul-17 02:00N 48°52' W 123°39'0 0.0
2018-Jul-17 01:30N 48°52' W 123°39'0 0.0
2018-Jul-17 01:00N 48°52' W 123°39'0 0.0
2018-Jul-17 00:28N 48°52' W 123°39'0 0.0
2018-Jul-16 23:30N 48°52' W 123°39'0 0.0
2018-Jul-16 23:00N 48°52' W 123°39'0 0.0
2018-Jul-16 22:30N 48°52' W 123°39'0 0.0
2018-Jul-16 21:56N 48°52' W 123°39'0 0.0
2018-Jul-16 21:30N 48°52' W 123°39'0 0.0
2018-Jul-16 21:00N 48°52' W 123°39'0 0.0
2018-Jul-16 20:29N 48°52' W 123°39'0 0.0
2018-Jul-16 20:00N 48°52' W 123°39'0 0.0
2018-Jul-16 19:26N 48°52' W 123°39'0 0.0
2018-Jul-16 19:00N 48°52' W 123°39'0 0.0
2018-Jul-16 18:31N 48°52' W 123°39'0 0.0
2018-Jul-16 17:59N 48°52' W 123°39'0 0.0
2018-Jul-16 17:30N 48°52' W 123°39'0 0.0
2018-Jul-16 17:00N 48°52' W 123°39'0 0.0
2018-Jul-16 16:29N 48°52' W 123°39'0 0.0
2018-Jul-16 16:00N 48°52' W 123°39'0 0.0
2018-Jul-16 15:31N 48°52' W 123°39'0 0.0
2018-Jul-16 14:58N 48°52' W 123°39'0 0.0
2018-Jul-16 14:30N 48°52' W 123°39'0 0.2
2018-Jul-16 14:01N 48°53' W 123°38'0 0.0
2018-Jul-16 13:31N 48°53' W 123°38'0 0.9
2018-Jul-16 13:00N 48°52' W 123°38'1 2.3
2018-Jul-16 12:30N 48°53' W 123°37'2 3.5
2018-Jul-16 12:01N 48°55' W 123°39'2 3.4
2018-Jul-16 11:30N 48°56' W 123°40'1 1.8
2018-Jul-16 11:00N 48°55' W 123°40'2 3.2
2018-Jul-16 10:31N 48°54' W 123°38'1 2.5
2018-Jul-16 10:01N 48°55' W 123°36'2 3.2
2018-Jul-16 09:30N 48°57' W 123°36'3 3.7
2018-Jul-16 08:43N 48°55' W 123°32'1 3.5
2018-Jul-16 08:30N 48°55' W 123°31'2 3.2
2018-Jul-16 07:59N 48°54' W 123°29'2 3.5
2018-Jul-16 07:28N 48°53' W 123°27'1 2.9
2018-Jul-16 06:58N 48°52' W 123°25'2 3.1
2018-Jul-16 06:29N 48°51' W 123°23'2 3.9
2018-Jul-16 06:00N 48°50' W 123°21'1 2.5
2018-Jul-16 05:31N 48°49' W 123°20'2 3.3
2018-Jul-16 05:00N 48°47' W 123°20'2 3.3
2018-Jul-16 04:30N 48°46' W 123°19'2 3.8
2018-Jul-16 04:01N 48°44' W 123°17'3 5.1
2018-Jul-16 03:28N 48°42' W 123°15'3 7.5
2018-Jul-16 03:00N 48°39' W 123°14'4 7.3
2018-Jul-16 02:30N 48°35' W 123°13'4 7.6
2018-Jul-16 02:01N 48°31' W 123°12'3 6.4
2018-Jul-16 01:31N 48°29' W 123°10'4 7.3
2018-Jul-16 01:00N 48°25' W 123°10'4 7.3
2018-Jul-16 00:28N 48°21' W 123°13'19 6.4
2018-Jul-15 21:28N 48°12' W 123°38'10 4.7
2018-Jul-15 19:26N 48°13' W 123°53'2 3.6
2018-Jul-15 18:51N 48°13' W 123°56'1 3.6
2018-Jul-15 18:28N 48°13' W 123°58'2 4.1
2018-Jul-15 17:53N 48°14' W 124°01'2 4.5
2018-Jul-15 17:29N 48°15' W 124°04'2 3.9
2018-Jul-15 16:58N 48°16' W 124°06'2 3.5
2018-Jul-15 16:29N 48°17' W 124°08'2 4.1
2018-Jul-15 16:00N 48°17' W 124°11'2 4.7
2018-Jul-15 15:29N 48°18' W 124°15'2 4.9
2018-Jul-15 15:01N 48°19' W 124°18'3 4.9
2018-Jul-15 14:28N 48°20' W 124°21'2 5.1
2018-Jul-15 14:00N 48°21' W 124°25'3 5.3
2018-Jul-15 13:30N 48°23' W 124°28'3 5.5
2018-Jul-15 13:00N 48°24' W 124°32'3 5.5
2018-Jul-15 12:30N 48°25' W 124°36'3 5.3
2018-Jul-15 12:00N 48°26' W 124°39'3 5.8
2018-Jul-15 11:31N 48°26' W 124°44'3 6.6
2018-Jul-15 11:01N 48°25' W 124°48'4 7.9
2018-Jul-15 10:30N 48°21' W 124°52'4 7.2
2018-Jul-15 09:57N 48°18' W 124°55'3 6.9
2018-Jul-15 09:30N 48°16' W 124°58'3 6.7
2018-Jul-15 09:00N 48°12' W 124°58'5 6.9
2018-Jul-15 08:19N 48°07' W 124°57'14 6.3
2018-Jul-15 06:06N 47°54' W 124°52'1 6.0
2018-Jul-15 05:57N 47°53' W 124°52'3 6.0
2018-Jul-15 05:31N 47°51' W 124°50'5 6.1
2018-Jul-15 04:38N 47°45' W 124°48'1 5.7
2018-Jul-15 04:30N 47°45' W 124°48'3 5.8
2018-Jul-15 04:01N 47°42' W 124°48'3 5.7
2018-Jul-15 03:30N 47°39' W 124°47'3 5.8
2018-Jul-15 03:01N 47°36' W 124°46'6 5.6
2018-Jul-15 01:56N 47°30' W 124°43'2 5.9
2018-Jul-15 01:30N 47°28' W 124°43'3 5.7
2018-Jul-15 01:01N 47°25' W 124°41'3 5.7
2018-Jul-15 00:30N 47°22' W 124°41'3 5.6
2018-Jul-15 00:00N 47°20' W 124°40'4 5.6
2018-Jul-14 23:13N 47°15' W 124°39'1 5.6
2018-Jul-14 23:01N 47°14' W 124°38'3 5.4
2018-Jul-14 22:31N 47°12' W 124°37'3 5.3
2018-Jul-14 22:01N 47°09' W 124°36'3 5.3
2018-Jul-14 21:30N 47°07' W 124°34'3 5.5
2018-Jul-14 21:00N 47°04' W 124°33'3 5.2
2018-Jul-14 20:31N 47°02' W 124°32'3 5.6
2018-Jul-14 20:00N 46°59' W 124°31'3 5.5
2018-Jul-14 19:30N 46°56' W 124°29'3 5.2
2018-Jul-14 19:00N 46°55' W 124°26'3 5.2
2018-Jul-14 18:29N 46°53' W 124°23'2 5.2
2018-Jul-14 18:01N 46°52' W 124°20'3 5.8
2018-Jul-14 17:30N 46°49' W 124°20'3 5.4
2018-Jul-14 17:01N 46°46' W 124°19'3 5.7
2018-Jul-14 16:31N 46°43' W 124°18'3 5.6
2018-Jul-14 16:00N 46°41' W 124°18'3 5.6
2018-Jul-14 15:31N 46°38' W 124°17'3 5.5
2018-Jul-14 15:01N 46°35' W 124°17'5 5.2
2018-Jul-14 14:01N 46°30' W 124°16'3 5.3
2018-Jul-14 13:29N 46°27' W 124°16'2 5.1
2018-Jul-14 13:00N 46°25' W 124°16'3 5.0
2018-Jul-14 12:30N 46°22' W 124°15'2 5.0
2018-Jul-14 12:01N 46°20' W 124°14'2 4.9
2018-Jul-14 11:31N 46°17' W 124°14'2 4.9
2018-Jul-14 11:01N 46°15' W 124°13'2 4.9
2018-Jul-14 10:31N 46°13' W 124°12'2 4.9
2018-Jul-14 10:01N 46°11' W 124°10'4 5.4
2018-Jul-14 09:15N 46°06' W 124°09'1 5.7
2018-Jul-14 09:01N 46°05' W 124°09'3 5.6
2018-Jul-14 08:30N 46°02' W 124°09'3 5.6
2018-Jul-14 08:01N 45°60' W 124°08'3 5.3
2018-Jul-14 07:31N 45°57' W 124°08'3 5.4
2018-Jul-14 06:59N 45°54' W 124°07'3 5.3
2018-Jul-14 06:30N 45°52' W 124°07'3 5.1
2018-Jul-14 06:01N 45°49' W 124°07'2 4.9
2018-Jul-14 05:31N 45°47' W 124°06'2 5.0
2018-Jul-14 05:00N 45°44' W 124°06'3 5.2
2018-Jul-14 04:30N 45°42' W 124°05'3 5.3
2018-Jul-14 04:01N 45°39' W 124°05'3 5.1
2018-Jul-14 03:27N 45°36' W 124°05'2 4.8
2018-Jul-14 02:59N 45°34' W 124°05'2 4.9
2018-Jul-14 02:30N 45°32' W 124°05'2 4.7
2018-Jul-14 02:00N 45°29' W 124°05'2 4.9
2018-Jul-14 01:31N 45°27' W 124°05'2 4.9
2018-Jul-14 01:00N 45°24' W 124°05'2 4.9
2018-Jul-14 00:30N 45°22' W 124°05'4 5.2
2018-Jul-13 23:49N 45°18' W 124°05'2 5.7
2018-Jul-13 23:31N 45°17' W 124°05'3 5.7
2018-Jul-13 23:00N 45°14' W 124°05'3 5.4
2018-Jul-13 22:30N 45°11' W 124°05'3 5.4
2018-Jul-13 22:01N 45°08' W 124°05'3 5.4
2018-Jul-13 21:31N 45°06' W 124°06'3 5.2
2018-Jul-13 21:00N 45°03' W 124°07'4 5.0
2018-Jul-13 20:07N 44°59' W 124°08'1 5.0
2018-Jul-13 19:57N 44°58' W 124°08'3 5.1
2018-Jul-13 19:26N 44°56' W 124°09'2 5.2
2018-Jul-13 19:01N 44°53' W 124°10'3 5.0
2018-Jul-13 18:27N 44°51' W 124°11'2 5.2
2018-Jul-13 18:01N 44°48' W 124°12'3 5.1
2018-Jul-13 17:28N 44°46' W 124°12'2 4.9
2018-Jul-13 17:00N 44°44' W 124°13'2 4.9
2018-Jul-13 16:30N 44°41' W 124°13'4 4.8
2018-Jul-13 15:41N 44°37' W 124°16'1 4.9
2018-Jul-13 15:25N 44°36' W 124°17'2 4.4
2018-Jul-13 15:00N 44°35' W 124°17'4 4.5
2018-Jul-13 14:00N 44°30' W 124°16'2 4.4
2018-Jul-13 13:30N 44°28' W 124°16'2 4.5
2018-Jul-13 13:00N 44°26' W 124°17'2 4.6
2018-Jul-13 12:30N 44°23' W 124°17'2 4.6
2018-Jul-13 12:01N 44°21' W 124°17'2 4.7
2018-Jul-13 11:30N 44°19' W 124°18'2 4.7
2018-Jul-13 11:01N 44°16' W 124°18'2 4.7
2018-Jul-13 10:30N 44°14' W 124°18'2 4.6
2018-Jul-13 10:01N 44°12' W 124°18'2 4.4
2018-Jul-13 09:30N 44°10' W 124°18'2 4.1
2018-Jul-13 09:00N 44°08' W 124°18'2 4.0
2018-Jul-13 08:30N 44°06' W 124°18'4 4.2
2018-Jul-13 07:35N 44°02' W 124°19'1 4.3
2018-Jul-13 07:26N 44°01' W 124°19'2 4.2
2018-Jul-13 06:59N 43°59' W 124°19'3 4.0
2018-Jul-13 06:19N 43°57' W 124°20'11 3.8
2018-Jul-13 03:30N 43°46' W 124°21'2 3.8
2018-Jul-13 02:54N 43°44' W 124°20'3 4.1
2018-Jul-13 02:07N 43°41' W 124°19'  

Dump ship's entire track history